sensor_id;sensor_type;location;lat;lon;timestamp;temperature;humidity
15777;DHT22;7989;51.198;6.676;2024-03-23T00:53:08;7.90;99.90
15777;DHT22;7989;51.198;6.676;2024-03-23T00:55:34;7.80;99.90
15777;DHT22;7989;51.198;6.676;2024-03-23T00:58:01;7.70;99.90
15777;DHT22;7989;51.198;6.676;2024-03-23T01:00:28;7.80;99.90
15777;DHT22;7989;51.198;6.676;2024-03-23T01:02:54;7.70;99.90
15777;DHT22;7989;51.198;6.676;2024-03-23T01:05:20;7.80;99.90
15777;DHT22;7989;51.198;6.676;2024-03-23T01:07:47;7.90;99.90
15777;DHT22;7989;51.198;6.676;2024-03-23T01:10:14;7.80;99.90
15777;DHT22;7989;51.198;6.676;2024-03-23T01:12:41;7.90;99.90
15777;DHT22;7989;51.198;6.676;2024-03-23T01:15:08;8.10;99.90
15777;DHT22;7989;51.198;6.676;2024-03-23T01:17:35;8.00;99.90
15777;DHT22;7989;51.198;6.676;2024-03-23T01:20:00;8.10;99.90
15777;DHT22;7989;51.198;6.676;2024-03-23T01:22:28;8.20;99.90
15777;DHT22;7989;51.198;6.676;2024-03-23T01:24:54;8.00;99.90
15777;DHT22;7989;51.198;6.676;2024-03-23T01:27:22;7.90;99.90
15777;DHT22;7989;51.198;6.676;2024-03-23T01:29:48;7.60;99.90
15777;DHT22;7989;51.198;6.676;2024-03-23T01:32:16;7.50;99.90
15777;DHT22;7989;51.198;6.676;2024-03-23T01:34:42;7.40;99.90
15777;DHT22;7989;51.198;6.676;2024-03-23T01:37:09;7.30;99.90
15777;DHT22;7989;51.198;6.676;2024-03-23T01:39:34;7.20;99.90
15777;DHT22;7989;51.198;6.676;2024-03-23T01:42:02;7.10;99.90
15777;DHT22;7989;51.198;6.676;2024-03-23T01:44:30;7.10;99.90
15777;DHT22;7989;51.198;6.676;2024-03-23T01:46:56;7.20;99.90
15777;DHT22;7989;51.198;6.676;2024-03-23T01:49:22;7.20;99.90
15777;DHT22;7989;51.198;6.676;2024-03-23T01:51:50;7.20;99.90
15777;DHT22;7989;51.198;6.676;2024-03-23T01:54:16;7.30;99.90
15777;DHT22;7989;51.198;6.676;2024-03-23T01:56:43;7.30;99.90
15777;DHT22;7989;51.198;6.676;2024-03-23T01:59:09;7.50;99.90
15777;DHT22;7989;51.198;6.676;2024-03-23T02:01:37;7.60;99.90
15777;DHT22;7989;51.198;6.676;2024-03-23T02:04:03;7.60;99.90
15777;DHT22;7989;51.198;6.676;2024-03-23T02:06:30;7.60;99.90
15777;DHT22;7989;51.198;6.676;2024-03-23T02:08:56;7.60;99.90
15777;DHT22;7989;51.198;6.676;2024-03-23T02:11:24;7.70;99.90
15777;DHT22;7989;51.198;6.676;2024-03-23T02:13:50;7.80;99.90
15777;DHT22;7989;51.198;6.676;2024-03-23T02:16:17;7.80;99.90
15777;DHT22;7989;51.198;6.676;2024-03-23T02:18:44;7.90;99.90
15777;DHT22;7989;51.198;6.676;2024-03-23T02:21:11;7.90;99.90
15777;DHT22;7989;51.198;6.676;2024-03-23T02:23:38;7.90;99.90
15777;DHT22;7989;51.198;6.676;2024-03-23T02:26:05;7.90;99.90
15777;DHT22;7989;51.198;6.676;2024-03-23T02:28:31;7.90;99.90
15777;DHT22;7989;51.198;6.676;2024-03-23T02:30:58;7.90;99.90
15777;DHT22;7989;51.198;6.676;2024-03-23T02:33:26;7.90;99.90
15777;DHT22;7989;51.198;6.676;2024-03-23T02:35:56;7.90;99.90
15777;DHT22;7989;51.198;6.676;2024-03-23T02:38:22;7.90;99.90
15777;DHT22;7989;51.198;6.676;2024-03-23T02:40:50;7.90;99.90
15777;DHT22;7989;51.198;6.676;2024-03-23T02:43:16;7.90;99.90
15777;DHT22;7989;51.198;6.676;2024-03-23T02:45:42;7.90;99.90
15777;DHT22;7989;51.198;6.676;2024-03-23T02:48:08;7.90;99.90
15777;DHT22;7989;51.198;6.676;2024-03-23T02:50:35;7.80;99.90
15777;DHT22;7989;51.198;6.676;2024-03-23T02:53:02;7.80;99.90
15777;DHT22;7989;51.198;6.676;2024-03-23T02:55:28;7.80;99.90
15777;DHT22;7989;51.198;6.676;2024-03-23T02:57:56;7.70;99.90
15777;DHT22;7989;51.198;6.676;2024-03-23T03:00:27;7.70;99.90
15777;DHT22;7989;51.198;6.676;2024-03-23T03:02:53;7.60;99.90
15777;DHT22;7989;51.198;6.676;2024-03-23T03:05:20;7.70;99.90
15777;DHT22;7989;51.198;6.676;2024-03-23T03:07:46;7.70;99.90
15777;DHT22;7989;51.198;6.676;2024-03-23T03:10:13;7.70;99.90
15777;DHT22;7989;51.198;6.676;2024-03-23T03:12:38;7.60;99.90
15777;DHT22;7989;51.198;6.676;2024-03-23T03:15:07;7.60;99.90
15777;DHT22;7989;51.198;6.676;2024-03-23T03:17:34;7.60;99.90
15777;DHT22;7989;51.198;6.676;2024-03-23T03:20:01;7.60;99.90
15777;DHT22;7989;51.198;6.676;2024-03-23T03:22:27;7.60;99.90
15777;DHT22;7989;51.198;6.676;2024-03-23T03:24:54;7.70;99.90
15777;DHT22;7989;51.198;6.676;2024-03-23T03:27:20;7.70;99.90
15777;DHT22;7989;51.198;6.676;2024-03-23T03:29:48;7.70;99.90
15777;DHT22;7989;51.198;6.676;2024-03-23T03:32:15;7.70;99.90
15777;DHT22;7989;51.198;6.676;2024-03-23T03:34:42;7.70;99.90
15777;DHT22;7989;51.198;6.676;2024-03-23T03:37:08;7.70;99.90
15777;DHT22;7989;51.198;6.676;2024-03-23T03:39:34;7.60;99.90
15777;DHT22;7989;51.198;6.676;2024-03-23T03:42:00;7.60;99.90
15777;DHT22;7989;51.198;6.676;2024-03-23T03:44:32;7.60;99.90
15777;DHT22;7989;51.198;6.676;2024-03-23T03:46:58;7.60;99.90
15777;DHT22;7989;51.198;6.676;2024-03-23T03:49:26;7.60;99.90
15777;DHT22;7989;51.198;6.676;2024-03-23T03:51:51;7.60;99.90
15777;DHT22;7989;51.198;6.676;2024-03-23T03:54:18;7.60;99.90
15777;DHT22;7989;51.198;6.676;2024-03-23T03:56:44;7.60;99.90
15777;DHT22;7989;51.198;6.676;2024-03-23T03:59:11;7.60;99.90
15777;DHT22;7989;51.198;6.676;2024-03-23T04:01:37;7.50;99.90
15777;DHT22;7989;51.198;6.676;2024-03-23T04:04:04;7.60;99.90
15777;DHT22;7989;51.198;6.676;2024-03-23T04:06:31;7.50;99.90
15777;DHT22;7989;51.198;6.676;2024-03-23T04:08:58;7.50;99.90
15777;DHT22;7989;51.198;6.676;2024-03-23T04:11:24;7.50;99.90
15777;DHT22;7989;51.198;6.676;2024-03-23T04:13:51;7.50;99.90
15777;DHT22;7989;51.198;6.676;2024-03-23T04:16:26;7.50;99.90
15777;DHT22;7989;51.198;6.676;2024-03-23T04:18:52;7.40;99.90
15777;DHT22;7989;51.198;6.676;2024-03-23T04:21:19;7.40;99.90
15777;DHT22;7989;51.198;6.676;2024-03-23T04:23:47;7.40;99.90
15777;DHT22;7989;51.198;6.676;2024-03-23T04:26:13;7.40;99.90
15777;DHT22;7989;51.198;6.676;2024-03-23T04:28:39;7.30;99.90
15777;DHT22;7989;51.198;6.676;2024-03-23T04:31:05;7.30;99.90
15777;DHT22;7989;51.198;6.676;2024-03-23T04:33:32;7.30;99.90
15777;DHT22;7989;51.198;6.676;2024-03-23T04:35:58;7.40;99.90
15777;DHT22;7989;51.198;6.676;2024-03-23T04:38:25;7.40;99.90
15777;DHT22;7989;51.198;6.676;2024-03-23T04:40:57;7.40;99.90
15777;DHT22;7989;51.198;6.676;2024-03-23T04:43:24;7.20;99.90
15777;DHT22;7989;51.198;6.676;2024-03-23T04:45:51;7.20;99.90
15777;DHT22;7989;51.198;6.676;2024-03-23T04:48:20;7.10;99.90
15777;DHT22;7989;51.198;6.676;2024-03-23T04:50:46;7.10;99.90
15777;DHT22;7989;51.198;6.676;2024-03-23T04:53:12;7.10;99.90
15777;DHT22;7989;51.198;6.676;2024-03-23T04:55:39;7.10;99.90
15777;DHT22;7989;51.198;6.676;2024-03-23T04:58:07;7.10;99.90
15777;DHT22;7989;51.198;6.676;2024-03-23T05:00:34;7.10;99.90
15777;DHT22;7989;51.198;6.676;2024-03-23T05:03:00;7.20;99.90
15777;DHT22;7989;51.198;6.676;2024-03-23T05:05:26;7.20;99.90
15777;DHT22;7989;51.198;6.676;2024-03-23T05:07:53;7.20;99.90
15777;DHT22;7989;51.198;6.676;2024-03-23T05:10:20;7.10;99.90
15777;DHT22;7989;51.198;6.676;2024-03-23T05:12:46;7.00;99.90
15777;DHT22;7989;51.198;6.676;2024-03-23T05:15:14;7.00;99.90
15777;DHT22;7989;51.198;6.676;2024-03-23T05:17:40;7.00;99.90
15777;DHT22;7989;51.198;6.676;2024-03-23T05:20:07;7.00;99.90
15777;DHT22;7989;51.198;6.676;2024-03-23T05:22:35;7.00;99.90
15777;DHT22;7989;51.198;6.676;2024-03-23T05:25:02;7.00;99.90
15777;DHT22;7989;51.198;6.676;2024-03-23T05:27:31;7.00;99.90
15777;DHT22;7989;51.198;6.676;2024-03-23T05:29:57;6.90;99.90
15777;DHT22;7989;51.198;6.676;2024-03-23T05:32:25;6.90;99.90
15777;DHT22;7989;51.198;6.676;2024-03-23T05:34:53;6.90;99.90
15777;DHT22;7989;51.198;6.676;2024-03-23T05:37:21;6.90;99.90
15777;DHT22;7989;51.198;6.676;2024-03-23T05:39:48;6.90;99.90
15777;DHT22;7989;51.198;6.676;2024-03-23T05:42:15;6.40;99.90
15777;DHT22;7989;51.198;6.676;2024-03-23T05:44:43;6.20;99.90
15777;DHT22;7989;51.198;6.676;2024-03-23T05:47:09;6.20;99.90
15777;DHT22;7989;51.198;6.676;2024-03-23T05:49:38;6.10;99.90
15777;DHT22;7989;51.198;6.676;2024-03-23T05:52:04;6.20;99.90
15777;DHT22;7989;51.198;6.676;2024-03-23T05:54:31;6.20;99.90
15777;DHT22;7989;51.198;6.676;2024-03-23T05:56:56;6.20;99.90
15777;DHT22;7989;51.198;6.676;2024-03-23T05:59:24;6.20;99.90
15777;DHT22;7989;51.198;6.676;2024-03-23T06:01:52;6.20;99.90
15777;DHT22;7989;51.198;6.676;2024-03-23T06:04:18;6.30;99.90
15777;DHT22;7989;51.198;6.676;2024-03-23T06:06:46;6.30;99.90
15777;DHT22;7989;51.198;6.676;2024-03-23T06:09:12;6.30;99.90
15777;DHT22;7989;51.198;6.676;2024-03-23T06:11:39;6.20;99.90
15777;DHT22;7989;51.198;6.676;2024-03-23T06:14:05;6.20;99.90
15777;DHT22;7989;51.198;6.676;2024-03-23T06:16:32;6.20;99.90
15777;DHT22;7989;51.198;6.676;2024-03-23T06:18:57;6.10;99.90
15777;DHT22;7989;51.198;6.676;2024-03-23T06:21:25;6.10;99.90
15777;DHT22;7989;51.198;6.676;2024-03-23T06:23:53;6.10;99.90
15777;DHT22;7989;51.198;6.676;2024-03-23T06:26:20;6.10;99.90
15777;DHT22;7989;51.198;6.676;2024-03-23T06:28:46;6.10;99.90
15777;DHT22;7989;51.198;6.676;2024-03-23T06:31:13;6.20;99.90
15777;DHT22;7989;51.198;6.676;2024-03-23T06:33:39;6.20;99.90
15777;DHT22;7989;51.198;6.676;2024-03-23T06:36:09;6.30;99.90
15777;DHT22;7989;51.198;6.676;2024-03-23T06:38:35;6.30;99.90
15777;DHT22;7989;51.198;6.676;2024-03-23T06:41:04;6.40;99.90
15777;DHT22;7989;51.198;6.676;2024-03-23T06:43:30;6.50;99.90
15777;DHT22;7989;51.198;6.676;2024-03-23T06:45:57;6.50;99.90
15777;DHT22;7989;51.198;6.676;2024-03-23T06:48:23;6.50;99.90
15777;DHT22;7989;51.198;6.676;2024-03-23T06:50:55;6.60;99.90
15777;DHT22;7989;51.198;6.676;2024-03-23T06:53:21;6.70;99.90
15777;DHT22;7989;51.198;6.676;2024-03-23T06:55:50;6.90;99.90
15777;DHT22;7989;51.198;6.676;2024-03-23T06:58:19;8.20;99.90
15777;DHT22;7989;51.198;6.676;2024-03-23T07:00:46;10.20;99.90
15777;DHT22;7989;51.198;6.676;2024-03-23T07:03:12;11.60;99.90
15777;DHT22;7989;51.198;6.676;2024-03-23T07:05:39;12.40;99.90
15777;DHT22;7989;51.198;6.676;2024-03-23T07:08:05;13.30;99.90
15777;DHT22;7989;51.198;6.676;2024-03-23T07:10:32;13.80;99.90
15777;DHT22;7989;51.198;6.676;2024-03-23T07:12:58;13.90;99.90
15777;DHT22;7989;51.198;6.676;2024-03-23T07:15:27;15.20;99.90
15777;DHT22;7989;51.198;6.676;2024-03-23T07:17:52;15.70;99.90
15777;DHT22;7989;51.198;6.676;2024-03-23T07:20:19;16.90;99.90
15777;DHT22;7989;51.198;6.676;2024-03-23T07:22:45;18.00;99.90
15777;DHT22;7989;51.198;6.676;2024-03-23T07:25:13;18.10;99.90
15777;DHT22;7989;51.198;6.676;2024-03-23T07:27:39;18.70;99.90
15777;DHT22;7989;51.198;6.676;2024-03-23T07:30:07;19.10;99.90
15777;DHT22;7989;51.198;6.676;2024-03-23T07:32:35;15.90;99.90
15777;DHT22;7989;51.198;6.676;2024-03-23T07:35:03;13.60;99.90
15777;DHT22;7989;51.198;6.676;2024-03-23T07:37:29;15.00;99.90
15777;DHT22;7989;51.198;6.676;2024-03-23T07:39:56;16.40;99.90
15777;DHT22;7989;51.198;6.676;2024-03-23T07:42:23;17.20;99.90
15777;DHT22;7989;51.198;6.676;2024-03-23T07:44:52;18.80;99.90
15777;DHT22;7989;51.198;6.676;2024-03-23T07:47:19;20.40;99.90
15777;DHT22;7989;51.198;6.676;2024-03-23T07:49:47;20.20;99.90
15777;DHT22;7989;51.198;6.676;2024-03-23T07:52:13;20.90;99.90
15777;DHT22;7989;51.198;6.676;2024-03-23T07:54:40;22.20;99.90
15777;DHT22;7989;51.198;6.676;2024-03-23T07:57:06;22.80;99.90
15777;DHT22;7989;51.198;6.676;2024-03-23T07:59:33;24.20;99.90
15777;DHT22;7989;51.198;6.676;2024-03-23T08:01:59;24.50;99.90
15777;DHT22;7989;51.198;6.676;2024-03-23T08:04:27;21.10;99.90
15777;DHT22;7989;51.198;6.676;2024-03-23T08:06:54;18.10;99.90
15777;DHT22;7989;51.198;6.676;2024-03-23T08:09:21;20.00;99.90
15777;DHT22;7989;51.198;6.676;2024-03-23T08:11:48;20.60;99.90
15777;DHT22;7989;51.198;6.676;2024-03-23T08:14:15;17.60;99.90
15777;DHT22;7989;51.198;6.676;2024-03-23T08:16:40;15.80;99.90
15777;DHT22;7989;51.198;6.676;2024-03-23T08:19:14;13.90;99.90
15777;DHT22;7989;51.198;6.676;2024-03-23T08:21:40;13.00;99.90
15777;DHT22;7989;51.198;6.676;2024-03-23T08:24:09;13.70;99.90
15777;DHT22;7989;51.198;6.676;2024-03-23T08:26:35;13.90;99.90
15777;DHT22;7989;51.198;6.676;2024-03-23T08:29:03;12.80;99.90
15777;DHT22;7989;51.198;6.676;2024-03-23T08:31:29;13.50;99.90
15777;DHT22;7989;51.198;6.676;2024-03-23T08:33:55;14.00;99.90
15777;DHT22;7989;51.198;6.676;2024-03-23T08:36:21;16.30;99.90
15777;DHT22;7989;51.198;6.676;2024-03-23T08:38:49;20.00;99.90
15777;DHT22;7989;51.198;6.676;2024-03-23T08:41:17;22.20;99.90
15777;DHT22;7989;51.198;6.676;2024-03-23T08:43:44;20.50;99.90
15777;DHT22;7989;51.198;6.676;2024-03-23T08:46:11;16.80;99.90
15777;DHT22;7989;51.198;6.676;2024-03-23T08:48:39;16.10;99.90
15777;DHT22;7989;51.198;6.676;2024-03-23T08:51:06;14.50;99.90
15777;DHT22;7989;51.198;6.676;2024-03-23T08:53:34;15.40;99.90
15777;DHT22;7989;51.198;6.676;2024-03-23T08:56:00;16.50;99.90
15777;DHT22;7989;51.198;6.676;2024-03-23T08:58:30;21.70;99.90
15777;DHT22;7989;51.198;6.676;2024-03-23T09:01:04;24.80;99.90
15777;DHT22;7989;51.198;6.676;2024-03-23T09:03:31;26.00;96.80
15777;DHT22;7989;51.198;6.676;2024-03-23T09:05:57;26.60;94.70
15777;DHT22;7989;51.198;6.676;2024-03-23T09:08:24;26.20;90.90
15777;DHT22;7989;51.198;6.676;2024-03-23T09:10:50;20.10;95.40
15777;DHT22;7989;51.198;6.676;2024-03-23T09:13:17;17.90;98.20
15777;DHT22;7989;51.198;6.676;2024-03-23T09:15:47;18.90;99.90
15777;DHT22;7989;51.198;6.676;2024-03-23T09:18:14;22.40;98.10
15777;DHT22;7989;51.198;6.676;2024-03-23T09:20:40;21.80;98.50
15777;DHT22;7989;51.198;6.676;2024-03-23T09:23:07;24.80;95.90
15777;DHT22;7989;51.198;6.676;2024-03-23T09:25:36;26.90;92.20
15777;DHT22;7989;51.198;6.676;2024-03-23T09:28:03;22.20;92.30
15777;DHT22;7989;51.198;6.676;2024-03-23T09:30:29;17.80;96.00
15777;DHT22;7989;51.198;6.676;2024-03-23T09:32:57;14.90;99.60
15777;DHT22;7989;51.198;6.676;2024-03-23T09:35:23;13.70;99.90
15777;DHT22;7989;51.198;6.676;2024-03-23T09:37:50;16.00;99.90
15777;DHT22;7989;51.198;6.676;2024-03-23T09:40:16;19.80;99.90
15777;DHT22;7989;51.198;6.676;2024-03-23T09:42:49;21.30;96.60
15777;DHT22;7989;51.198;6.676;2024-03-23T09:45:19;21.10;98.20
15777;DHT22;7989;51.198;6.676;2024-03-23T09:47:47;20.20;95.50
15777;DHT22;7989;51.198;6.676;2024-03-23T09:50:15;17.50;96.60
15777;DHT22;7989;51.198;6.676;2024-03-23T09:52:42;15.10;98.40
15777;DHT22;7989;51.198;6.676;2024-03-23T09:55:08;14.40;99.90
15777;DHT22;7989;51.198;6.676;2024-03-23T09:57:36;13.50;99.90
15777;DHT22;7989;51.198;6.676;2024-03-23T10:00:02;14.20;99.90
15777;DHT22;7989;51.198;6.676;2024-03-23T10:02:29;14.90;99.90
15777;DHT22;7989;51.198;6.676;2024-03-23T10:04:54;14.20;99.90
15777;DHT22;7989;51.198;6.676;2024-03-23T10:07:25;13.90;99.90
15777;DHT22;7989;51.198;6.676;2024-03-23T10:09:51;14.60;99.90
15777;DHT22;7989;51.198;6.676;2024-03-23T10:12:19;13.70;99.90
15777;DHT22;7989;51.198;6.676;2024-03-23T10:14:45;14.90;99.90
15777;DHT22;7989;51.198;6.676;2024-03-23T10:17:14;15.70;99.90
15777;DHT22;7989;51.198;6.676;2024-03-23T10:19:41;16.20;98.70
15777;DHT22;7989;51.198;6.676;2024-03-23T10:22:09;14.90;99.20
15777;DHT22;7989;51.198;6.676;2024-03-23T10:24:37;13.50;99.90
15777;DHT22;7989;51.198;6.676;2024-03-23T10:27:04;12.00;99.90
15777;DHT22;7989;51.198;6.676;2024-03-23T10:29:29;11.60;99.90
15777;DHT22;7989;51.198;6.676;2024-03-23T10:32:08;10.80;99.90
15777;DHT22;7989;51.198;6.676;2024-03-23T10:34:34;10.40;99.90
15777;DHT22;7989;51.198;6.676;2024-03-23T10:37:02;9.60;99.90
15777;DHT22;7989;51.198;6.676;2024-03-23T10:39:30;9.10;99.90
15777;DHT22;7989;51.198;6.676;2024-03-23T10:42:01;9.10;99.90
15777;DHT22;7989;51.198;6.676;2024-03-23T10:44:29;9.30;99.90
15777;DHT22;7989;51.198;6.676;2024-03-23T10:46:57;8.90;99.90
15777;DHT22;7989;51.198;6.676;2024-03-23T10:49:26;8.90;99.90
15777;DHT22;7989;51.198;6.676;2024-03-23T10:51:56;8.60;99.90
15777;DHT22;7989;51.198;6.676;2024-03-23T10:54:22;8.40;99.90
15777;DHT22;7989;51.198;6.676;2024-03-23T10:56:54;8.40;99.90
15777;DHT22;7989;51.198;6.676;2024-03-23T10:59:22;8.30;99.90
15777;DHT22;7989;51.198;6.676;2024-03-23T11:01:55;8.40;99.90
15777;DHT22;7989;51.198;6.676;2024-03-23T11:04:31;8.50;99.90
15777;DHT22;7989;51.198;6.676;2024-03-23T11:06:58;8.80;99.90
15777;DHT22;7989;51.198;6.676;2024-03-23T11:09:41;8.90;99.90
15777;DHT22;7989;51.198;6.676;2024-03-23T11:12:27;9.30;99.90
15777;DHT22;7989;51.198;6.676;2024-03-23T11:14:59;9.70;99.90
15777;DHT22;7989;51.198;6.676;2024-03-23T11:17:27;9.80;99.90
15777;DHT22;7989;51.198;6.676;2024-03-23T11:19:54;10.00;99.90
15777;DHT22;7989;51.198;6.676;2024-03-23T11:22:41;10.00;99.90
15777;DHT22;7989;51.198;6.676;2024-03-23T11:25:13;10.80;99.90
15777;DHT22;7989;51.198;6.676;2024-03-23T11:27:39;12.50;99.90
15777;DHT22;7989;51.198;6.676;2024-03-23T11:30:15;14.40;99.90
15777;DHT22;7989;51.198;6.676;2024-03-23T11:32:42;15.50;99.90
15777;DHT22;7989;51.198;6.676;2024-03-23T11:35:09;16.10;99.90
15777;DHT22;7989;51.198;6.676;2024-03-23T11:37:36;15.80;99.90
15777;DHT22;7989;51.198;6.676;2024-03-23T11:40:19;15.90;99.90
15777;DHT22;7989;51.198;6.676;2024-03-23T11:42:45;15.80;99.90
15777;DHT22;7989;51.198;6.676;2024-03-23T11:45:14;16.20;99.90
15777;DHT22;7989;51.198;6.676;2024-03-23T11:47:41;16.50;99.90
15777;DHT22;7989;51.198;6.676;2024-03-23T11:50:08;15.80;99.90
15777;DHT22;7989;51.198;6.676;2024-03-23T11:52:35;12.30;99.90
15777;DHT22;7989;51.198;6.676;2024-03-23T11:55:06;10.60;99.90
15777;DHT22;7989;51.198;6.676;2024-03-23T11:57:33;10.10;99.90
15777;DHT22;7989;51.198;6.676;2024-03-23T12:00:00;9.70;99.90
15777;DHT22;7989;51.198;6.676;2024-03-23T12:02:27;9.70;99.90
15777;DHT22;7989;51.198;6.676;2024-03-23T12:04:54;9.80;99.90
15777;DHT22;7989;51.198;6.676;2024-03-23T12:07:20;9.90;99.90
15777;DHT22;7989;51.198;6.676;2024-03-23T12:10:02;9.90;99.90
15777;DHT22;7989;51.198;6.676;2024-03-23T12:12:28;9.70;99.90
15777;DHT22;7989;51.198;6.676;2024-03-23T12:15:02;9.60;99.90
15777;DHT22;7989;51.198;6.676;2024-03-23T12:17:29;10.10;99.90
15777;DHT22;7989;51.198;6.676;2024-03-23T12:19:56;10.90;99.90
15777;DHT22;7989;51.198;6.676;2024-03-23T12:22:22;13.40;99.90
15777;DHT22;7989;51.198;6.676;2024-03-23T12:24:49;14.90;99.90
15777;DHT22;7989;51.198;6.676;2024-03-23T12:27:15;15.10;99.90
15777;DHT22;7989;51.198;6.676;2024-03-23T12:29:42;14.00;99.90
15777;DHT22;7989;51.198;6.676;2024-03-23T12:32:09;12.40;99.90
15777;DHT22;7989;51.198;6.676;2024-03-23T12:34:37;11.40;99.90
15777;DHT22;7989;51.198;6.676;2024-03-23T12:37:03;11.00;99.90
15777;DHT22;7989;51.198;6.676;2024-03-23T12:39:31;11.00;99.90
15777;DHT22;7989;51.198;6.676;2024-03-23T12:41:57;11.50;99.90
15777;DHT22;7989;51.198;6.676;2024-03-23T12:44:26;12.60;99.90
15777;DHT22;7989;51.198;6.676;2024-03-23T12:46:52;14.50;99.90
15777;DHT22;7989;51.198;6.676;2024-03-23T12:49:19;16.20;99.90
15777;DHT22;7989;51.198;6.676;2024-03-23T12:51:53;18.20;99.90
15777;DHT22;7989;51.198;6.676;2024-03-23T12:54:19;19.50;99.90
15777;DHT22;7989;51.198;6.676;2024-03-23T12:56:46;19.30;99.70
15777;DHT22;7989;51.198;6.676;2024-03-23T12:59:12;18.70;98.60
15777;DHT22;7989;51.198;6.676;2024-03-23T13:01:39;19.70;98.00
15777;DHT22;7989;51.198;6.676;2024-03-23T13:04:05;19.10;96.80
15777;DHT22;7989;51.198;6.676;2024-03-23T13:06:32;19.10;97.10
15777;DHT22;7989;51.198;6.676;2024-03-23T13:09:00;18.00;96.60
15777;DHT22;7989;51.198;6.676;2024-03-23T13:11:28;14.30;99.90
15777;DHT22;7989;51.198;6.676;2024-03-23T13:13:55;11.90;99.90
15777;DHT22;7989;51.198;6.676;2024-03-23T13:16:21;11.00;99.90
15777;DHT22;7989;51.198;6.676;2024-03-23T13:18:48;10.50;99.90
15777;DHT22;7989;51.198;6.676;2024-03-23T13:21:14;10.70;99.90
15777;DHT22;7989;51.198;6.676;2024-03-23T13:23:42;12.70;99.90
15777;DHT22;7989;51.198;6.676;2024-03-23T13:26:10;16.10;99.90
15777;DHT22;7989;51.198;6.676;2024-03-23T13:28:37;18.90;99.90
15777;DHT22;7989;51.198;6.676;2024-03-23T13:31:03;19.70;99.90
15777;DHT22;7989;51.198;6.676;2024-03-23T13:33:30;21.00;98.20
15777;DHT22;7989;51.198;6.676;2024-03-23T13:35:58;21.60;96.10
15777;DHT22;7989;51.198;6.676;2024-03-23T13:38:25;22.10;95.70
15777;DHT22;7989;51.198;6.676;2024-03-23T13:40:52;19.70;95.20
15777;DHT22;7989;51.198;6.676;2024-03-23T13:43:20;16.60;98.40
15777;DHT22;7989;51.198;6.676;2024-03-23T13:45:47;14.20;99.90
15777;DHT22;7989;51.198;6.676;2024-03-23T13:48:14;12.90;99.90
15777;DHT22;7989;51.198;6.676;2024-03-23T13:50:40;12.40;99.90
15777;DHT22;7989;51.198;6.676;2024-03-23T13:53:07;12.20;99.90
15777;DHT22;7989;51.198;6.676;2024-03-23T13:55:33;12.50;99.90
15777;DHT22;7989;51.198;6.676;2024-03-23T13:58:01;13.50;99.90
15777;DHT22;7989;51.198;6.676;2024-03-23T14:00:28;13.60;99.90
15777;DHT22;7989;51.198;6.676;2024-03-23T14:02:55;15.00;99.90
15777;DHT22;7989;51.198;6.676;2024-03-23T14:05:21;18.10;99.90
15777;DHT22;7989;51.198;6.676;2024-03-23T14:07:47;19.60;97.90
15777;DHT22;7989;51.198;6.676;2024-03-23T14:10:14;21.10;96.30
15777;DHT22;7989;51.198;6.676;2024-03-23T14:12:41;21.30;93.60
15777;DHT22;7989;51.198;6.676;2024-03-23T14:15:08;19.90;95.40
15777;DHT22;7989;51.198;6.676;2024-03-23T14:17:36;18.90;96.00
15777;DHT22;7989;51.198;6.676;2024-03-23T14:20:02;17.50;96.40
15777;DHT22;7989;51.198;6.676;2024-03-23T14:22:31;15.40;98.80
15777;DHT22;7989;51.198;6.676;2024-03-23T14:24:56;13.90;99.90
15777;DHT22;7989;51.198;6.676;2024-03-23T14:27:24;12.10;99.90
15777;DHT22;7989;51.198;6.676;2024-03-23T14:29:50;10.70;99.90
15777;DHT22;7989;51.198;6.676;2024-03-23T14:32:17;9.70;99.90
15777;DHT22;7989;51.198;6.676;2024-03-23T14:34:45;9.40;99.90
15777;DHT22;7989;51.198;6.676;2024-03-23T14:37:12;9.40;99.90
15777;DHT22;7989;51.198;6.676;2024-03-23T14:39:41;9.30;99.90
15777;DHT22;7989;51.198;6.676;2024-03-23T14:42:07;9.70;99.90
15777;DHT22;7989;51.198;6.676;2024-03-23T14:44:34;10.00;99.90
15777;DHT22;7989;51.198;6.676;2024-03-23T14:47:00;10.10;99.90
15777;DHT22;7989;51.198;6.676;2024-03-23T14:49:27;10.40;99.90
15777;DHT22;7989;51.198;6.676;2024-03-23T14:51:54;10.50;99.90
15777;DHT22;7989;51.198;6.676;2024-03-23T14:54:21;10.70;99.90
15777;DHT22;7989;51.198;6.676;2024-03-23T14:56:47;10.70;99.90
15777;DHT22;7989;51.198;6.676;2024-03-23T14:59:14;10.60;99.90
15777;DHT22;7989;51.198;6.676;2024-03-23T15:01:40;11.60;99.90
15777;DHT22;7989;51.198;6.676;2024-03-23T15:04:07;14.30;99.90
15777;DHT22;7989;51.198;6.676;2024-03-23T15:06:34;16.40;99.90
15777;DHT22;7989;51.198;6.676;2024-03-23T15:09:01;16.90;99.90
15777;DHT22;7989;51.198;6.676;2024-03-23T15:11:32;15.60;99.90
15777;DHT22;7989;51.198;6.676;2024-03-23T15:13:58;13.60;99.90
15777;DHT22;7989;51.198;6.676;2024-03-23T15:16:25;12.80;99.90
15777;DHT22;7989;51.198;6.676;2024-03-23T15:18:51;12.60;99.90
15777;DHT22;7989;51.198;6.676;2024-03-23T15:21:18;13.00;99.90
15777;DHT22;7989;51.198;6.676;2024-03-23T15:23:46;14.40;99.90
15777;DHT22;7989;51.198;6.676;2024-03-23T15:26:15;15.00;99.90
15777;DHT22;7989;51.198;6.676;2024-03-23T15:28:41;14.00;99.90
15777;DHT22;7989;51.198;6.676;2024-03-23T15:31:28;12.90;99.90
15777;DHT22;7989;51.198;6.676;2024-03-23T15:33:54;11.90;99.90
15777;DHT22;7989;51.198;6.676;2024-03-23T15:36:21;11.40;99.90
15777;DHT22;7989;51.198;6.676;2024-03-23T15:38:47;10.90;99.90
15777;DHT22;7989;51.198;6.676;2024-03-23T15:41:16;10.70;99.90
15777;DHT22;7989;51.198;6.676;2024-03-23T15:43:41;10.50;99.90
15777;DHT22;7989;51.198;6.676;2024-03-23T15:46:08;10.30;99.90
15777;DHT22;7989;51.198;6.676;2024-03-23T15:48:36;10.20;99.90
15777;DHT22;7989;51.198;6.676;2024-03-23T15:51:04;10.20;99.90
15777;DHT22;7989;51.198;6.676;2024-03-23T15:53:30;10.20;99.90
15777;DHT22;7989;51.198;6.676;2024-03-23T15:55:58;10.10;99.90
15777;DHT22;7989;51.198;6.676;2024-03-23T15:58:25;10.10;99.90
15777;DHT22;7989;51.198;6.676;2024-03-23T16:00:55;9.90;99.90
15777;DHT22;7989;51.198;6.676;2024-03-23T16:03:21;9.80;99.90
15777;DHT22;7989;51.198;6.676;2024-03-23T16:05:50;9.80;99.90
15777;DHT22;7989;51.198;6.676;2024-03-23T16:08:16;9.90;99.90
15777;DHT22;7989;51.198;6.676;2024-03-23T16:10:43;9.80;99.90
15777;DHT22;7989;51.198;6.676;2024-03-23T16:13:09;9.70;99.90
15777;DHT22;7989;51.198;6.676;2024-03-23T16:15:37;9.70;99.90
15777;DHT22;7989;51.198;6.676;2024-03-23T16:18:03;9.70;99.90
15777;DHT22;7989;51.198;6.676;2024-03-23T16:20:30;9.80;99.90
15777;DHT22;7989;51.198;6.676;2024-03-23T16:22:56;9.90;99.90
15777;DHT22;7989;51.198;6.676;2024-03-23T16:25:22;10.10;99.90
15777;DHT22;7989;51.198;6.676;2024-03-23T16:27:49;10.20;99.90
15777;DHT22;7989;51.198;6.676;2024-03-23T16:30:16;10.10;99.90
15777;DHT22;7989;51.198;6.676;2024-03-23T16:32:43;9.90;99.90
15777;DHT22;7989;51.198;6.676;2024-03-23T16:35:12;9.70;99.90
15777;DHT22;7989;51.198;6.676;2024-03-23T16:37:38;9.60;99.90
15777;DHT22;7989;51.198;6.676;2024-03-23T16:40:06;9.60;99.90
15777;DHT22;7989;51.198;6.676;2024-03-23T16:42:32;9.50;99.90
15777;DHT22;7989;51.198;6.676;2024-03-23T16:44:58;9.40;99.90
15777;DHT22;7989;51.198;6.676;2024-03-23T16:47:24;9.20;99.90